Time;durP1;ratioP1;P1;durP2;ratioP2;P2;SDS_P1;SDS_P2;PMS_P1;PMS_P2;Temp;Humidity;BMP_temperature;BMP_pressure;BME280_temperature;BME280_humidity;BME280_pressure;Samples;Min_cycle;Max_cycle;Signal;HPM_P1;HPM_P2
2022/06/27 00:00:09;;;;;;;4.68;4.18;;;;;;;18.79;70.00;95166.75;4965394;28;20236;-68
2022/06/27 00:02:36;;;;;;;5.68;4.38;;;;;;;19.05;68.93;95168.69;4965482;28;20216;-69
2022/06/27 00:05:03;;;;;;;4.93;4.43;;;;;;;19.04;68.95;95167.06;4958808;28;20302;-67
2022/06/27 00:07:28;;;;;;;4.85;4.30;;;;;;;19.02;69.16;95166.44;4970192;28;20202;-67
2022/06/27 00:09:54;;;;;;;6.65;4.75;;;;;;;19.04;69.05;95167.06;4968480;28;20219;-68
2022/06/27 00:12:19;;;;;;;4.70;4.28;;;;;;;19.14;68.91;95170.19;4973319;28;20231;-69
2022/06/27 00:14:45;;;;;;;5.20;4.55;;;;;;;19.12;68.83;95167.69;4955579;28;20232;-67
2022/06/27 00:17:10;;;;;;;4.45;4.03;;;;;;;19.11;68.65;95163.41;4970231;28;20301;-67
2022/06/27 00:19:36;;;;;;;5.32;4.30;;;;;;;19.17;68.67;95167.09;4967760;28;20215;-68
2022/06/27 00:22:01;;;;;;;6.07;4.60;;;;;;;19.05;68.91;95163.38;4962655;28;20692;-67
2022/06/27 00:24:27;;;;;;;4.68;4.30;;;;;;;19.07;69.16;95164.00;4964597;28;20236;-67
2022/06/27 00:26:52;;;;;;;5.25;4.53;;;;;;;19.11;68.69;95160.75;4977689;28;20228;-67
2022/06/27 00:29:18;;;;;;;5.15;4.75;;;;;;;19.31;67.65;95165.28;4968935;28;20754;-69
2022/06/27 00:31:43;;;;;;;5.95;4.47;;;;;;;19.04;68.31;95169.72;4954543;28;20231;-69
2022/06/27 00:34:08;;;;;;;4.95;4.55;;;;;;;18.92;68.36;95162.31;4984102;28;20200;-68
2022/06/27 00:36:34;;;;;;;6.05;4.22;;;;;;;19.05;68.26;95174.03;4970975;28;20239;-70
2022/06/27 00:38:59;;;;;;;5.55;4.10;;;;;;;18.91;68.62;95173.97;4973770;28;20228;-68
2022/06/27 00:41:25;;;;;;;4.63;4.22;;;;;;;18.96;68.43;95165.41;4969197;28;20240;-67
2022/06/27 00:43:50;;;;;;;4.45;4.15;;;;;;;18.99;67.92;95165.00;4968079;28;20244;-67
2022/06/27 00:46:16;;;;;;;5.07;4.50;;;;;;;18.44;70.36;95156.97;4976865;28;20212;-67
2022/06/27 00:48:41;;;;;;;4.82;4.32;;;;;;;18.69;69.44;95161.78;4959892;28;20226;-68
2022/06/27 00:51:07;;;;;;;7.47;4.55;;;;;;;18.95;68.36;95159.25;4969061;28;20232;-67
2022/06/27 00:53:33;;;;;;;5.43;5.03;;;;;;;18.99;67.86;95154.34;4967169;28;20221;-67
2022/06/27 00:56:00;;;;;;;5.25;4.70;;;;;;;18.98;67.72;95163.38;4965920;28;20301;-68
2022/06/27 00:58:25;;;;;;;7.40;4.47;;;;;;;18.78;68.20;95154.47;4967858;28;20215;-68
2022/06/27 01:00:51;;;;;;;6.40;4.38;;;;;;;18.73;68.73;95155.84;4963077;28;20215;-67
2022/06/27 01:03:16;;;;;;;8.65;5.13;;;;;;;18.03;71.12;95144.41;4960651;28;20244;-67
2022/06/27 01:05:51;;;;;;;9.07;4.32;;;;;;;18.46;70.03;95152.25;4968632;28;20220;-68
2022/06/27 01:08:21;;;;;;;4.80;4.40;;;;;;;18.76;68.56;95146.66;4969842;28;20227;-67
2022/06/27 01:10:47;;;;;;;5.45;4.88;;;;;;;18.71;68.35;95141.91;4969995;28;20259;-67
2022/06/27 01:13:14;;;;;;;6.32;5.07;;;;;;;18.67;68.68;95145.16;4972099;28;20196;-67
2022/06/27 01:15:41;;;;;;;7.47;6.00;;;;;;;18.74;68.09;95143.38;4973792;28;20236;-67
2022/06/27 01:18:07;;;;;;;7.07;6.22;;;;;;;18.71;68.41;95146.41;4972494;28;20737;-68
2022/06/27 01:20:33;;;;;;;7.20;5.95;;;;;;;18.75;68.08;95147.69;4962187;28;20221;-67
2022/06/27 01:22:59;;;;;;;7.13;6.43;;;;;;;18.56;68.82;95151.06;4966199;28;20235;-66
2022/06/27 01:25:25;;;;;;;7.00;6.35;;;;;;;18.55;68.67;95144.94;4980593;28;20201;-66
2022/06/27 01:27:51;;;;;;;8.27;5.65;;;;;;;18.22;70.18;95152.72;4968472;28;20231;-67
2022/06/27 01:30:16;;;;;;;7.72;6.10;;;;;;;18.15;70.85;95147.38;4976086;28;20223;-66
2022/06/27 01:32:42;;;;;;;6.25;5.75;;;;;;;18.32;70.01;95153.19;4971739;28;20235;-67
2022/06/27 01:35:08;;;;;;;6.72;6.13;;;;;;;18.39;69.88;95139.91;4973397;28;20228;-67
2022/06/27 01:37:34;;;;;;;7.78;7.07;;;;;;;18.28;69.96;95159.91;4971524;28;20212;-69
2022/06/27 01:40:00;;;;;;;5.80;5.18;;;;;;;18.31;70.22;95156.88;4971966;28;20239;-68
2022/06/27 01:42:27;;;;;;;5.55;5.15;;;;;;;18.37;70.09;95166.75;4961971;28;20238;-68
2022/06/27 01:44:52;;;;;;;6.53;5.40;;;;;;;18.36;70.19;95159.75;4974699;28;20794;-67
2022/06/27 01:47:18;;;;;;;6.28;5.70;;;;;;;18.41;70.14;95161.84;4973863;28;20243;-68
2022/06/27 01:49:43;;;;;;;5.95;5.47;;;;;;;18.40;69.89;95163.69;4948548;28;20302;-66
2022/06/27 01:52:14;;;;;;;5.85;5.35;;;;;;;18.40;70.22;95174.34;4970530;28;20219;-66
2022/06/27 01:54:39;;;;;;;5.72;5.07;;;;;;;18.45;69.59;95163.91;4969740;28;20233;-66
2022/06/27 01:57:07;;;;;;;6.03;5.45;;;;;;;18.49;69.56;95169.66;4963987;28;20251;-66
2022/06/27 01:59:33;;;;;;;7.55;4.70;;;;;;;18.52;69.40;95163.94;4974162;28;20231;-66
2022/06/27 02:02:00;;;;;;;5.15;4.65;;;;;;;18.52;69.05;95164.78;4965391;28;20231;-66
2022/06/27 02:04:27;;;;;;;5.05;4.55;;;;;;;18.56;68.64;95162.53;4964963;28;20212;-66
2022/06/27 02:06:54;;;;;;;7.28;4.95;;;;;;;18.44;68.94;95167.59;4965757;28;20564;-66
2022/06/27 02:09:19;;;;;;;5.20;4.68;;;;;;;18.42;69.05;95168.81;4958343;28;20247;-67
2022/06/27 02:11:47;;;;;;;5.30;4.90;;;;;;;18.32;69.39;95185.13;4965709;28;20759;-67
2022/06/27 02:14:13;;;;;;;5.43;5.03;;;;;;;18.26;69.48;95189.41;4965228;28;20251;-67
2022/06/27 02:16:41;;;;;;;5.47;4.63;;;;;;;18.36;69.42;95186.38;4978900;28;20243;-68
2022/06/27 02:19:07;;;;;;;5.63;5.13;;;;;;;18.35;69.21;95190.06;4970988;28;20274;-67
2022/06/27 02:21:33;;;;;;;6.30;5.32;;;;;;;18.22;69.45;95192.66;4972350;28;20231;-67
2022/06/27 02:23:59;;;;;;;6.53;5.18;;;;;;;18.26;69.58;95185.94;4960147;28;20235;-66
2022/06/27 02:26:28;;;;;;;6.60;5.50;;;;;;;18.37;69.14;95182.72;4964017;28;20275;-66
2022/06/27 02:28:55;;;;;;;6.30;5.70;;;;;;;18.16;69.45;95182.78;4965949;28;20203;-65
2022/06/27 02:31:21;;;;;;;5.40;4.90;;;;;;;18.23;69.82;95195.13;4959673;28;20311;-66
2022/06/27 02:33:48;;;;;;;7.07;5.28;;;;;;;18.05;70.18;95200.94;4961980;28;20588;-66
2022/06/27 02:36:20;;;;;;;6.43;5.80;;;;;;;18.17;69.84;95197.72;4967280;28;20232;-66
2022/06/27 02:38:50;;;;;;;5.57;5.07;;;;;;;18.13;70.18;95194.63;4964540;28;20228;-66
2022/06/27 02:41:18;;;;;;;6.63;5.25;;;;;;;18.07;70.03;95192.75;4962237;28;20267;-66
2022/06/27 02:43:49;;;;;;;6.13;5.20;;;;;;;18.25;69.48;95194.91;4963224;28;20207;-66
2022/06/27 02:46:14;;;;;;;6.10;5.47;;;;;;;17.97;70.45;95197.59;4960962;28;20204;-67
2022/06/27 02:48:41;;;;;;;5.22;4.82;;;;;;;17.86;71.09;95201.59;4964712;28;20264;-66
2022/06/27 02:51:14;;;;;;;5.95;5.32;;;;;;;17.98;70.91;95208.03;4973588;28;20228;-66
2022/06/27 02:54:08;;;;;;;5.55;5.00;;;;;;;18.05;70.60;95214.22;4970662;28;20565;-66
2022/06/27 02:56:39;;;;;;;5.72;5.15;;;;;;;18.10;70.61;95213.66;4957768;28;20251;-68
2022/06/27 02:59:10;;;;;;;6.25;5.65;;;;;;;18.08;70.65;95208.53;4975476;28;20267;-65
2022/06/27 03:01:38;;;;;;;7.57;5.22;;;;;;;18.05;70.19;95211.56;4973688;28;20619;-66
2022/06/27 03:04:04;;;;;;;9.90;5.70;;;;;;;18.06;70.89;95218.53;4958295;28;20225;-66
2022/06/27 03:06:29;;;;;;;6.55;5.32;;;;;;;18.16;70.38;95215.53;4965899;28;20235;-65
2022/06/27 03:08:55;;;;;;;5.53;5.05;;;;;;;18.18;70.09;95213.50;4968546;28;20216;-66
2022/06/27 03:11:22;;;;;;;7.15;5.70;;;;;;;18.19;70.14;95227.63;4970805;28;20220;-65
2022/06/27 03:13:49;;;;;;;6.85;5.60;;;;;;;18.20;70.19;95223.94;4963221;28;20208;-65
2022/06/27 03:16:15;;;;;;;6.25;5.65;;;;;;;18.15;70.33;95226.38;4973914;28;20291;-65
2022/06/27 03:18:41;;;;;;;6.72;5.88;;;;;;;18.12;70.42;95221.44;4965946;28;20363;-66
2022/06/27 03:21:06;;;;;;;10.23;5.78;;;;;;;18.18;69.97;95221.50;4947795;28;20351;-65
2022/06/27 03:23:32;;;;;;;6.45;5.78;;;;;;;18.19;69.81;95212.47;4957760;28;20228;-65
2022/06/27 03:28:52;;;;;;;6.90;6.20;;;;;;;18.23;69.76;95210.25;4964719;28;20219;-65
2022/06/27 03:31:18;;;;;;;6.07;5.35;;;;;;;18.29;69.48;95214.81;4963498;28;20742;-65
2022/06/27 03:33:43;;;;;;;5.95;5.35;;;;;;;18.32;68.90;95216.25;4966047;28;20235;-66
2022/06/27 03:36:09;;;;;;;8.07;5.38;;;;;;;18.22;68.93;95211.28;4967791;28;20922;-66
2022/06/27 03:38:35;;;;;;;7.97;5.70;;;;;;;18.22;68.99;95201.44;4961115;28;20223;-67
2022/06/27 03:41:01;;;;;;;8.10;5.88;;;;;;;18.20;69.23;95211.50;4967695;28;20281;-66
2022/06/27 03:43:27;;;;;;;6.60;5.47;;;;;;;18.22;69.26;95216.59;4967158;28;20699;-66
2022/06/27 03:45:53;;;;;;;6.78;5.40;;;;;;;18.31;68.88;95218.13;4973203;28;20323;-66
2022/06/27 03:51:02;;;;;;;6.75;5.88;;;;;;;18.40;67.61;95214.25;4962646;28;20224;-66
2022/06/27 03:53:28;;;;;;;6.53;5.93;;;;;;;18.44;67.85;95222.69;4967102;28;20474;-67
2022/06/27 03:55:53;;;;;;;7.93;5.65;;;;;;;18.44;67.63;95223.53;4958825;28;20212;-66
2022/06/27 03:58:19;;;;;;;10.00;5.80;;;;;;;18.43;67.22;95224.53;4972192;28;20199;-66
2022/06/27 04:00:45;;;;;;;8.43;5.88;;;;;;;18.34;67.21;95224.88;4963539;28;21231;-66
2022/06/27 04:03:10;;;;;;;5.32;4.82;;;;;;;18.45;66.65;95217.16;4961705;28;20255;-66
2022/06/27 04:05:36;;;;;;;5.68;4.75;;;;;;;18.47;65.35;95223.13;4962917;28;20299;-66
2022/06/27 04:08:01;;;;;;;8.18;4.95;;;;;;;18.52;65.13;95222.53;4965426;28;20239;-66
2022/06/27 04:10:27;;;;;;;5.05;4.55;;;;;;;18.55;64.68;95218.66;4977311;28;20192;-66
2022/06/27 04:12:52;;;;;;;5.93;5.32;;;;;;;18.58;64.42;95221.75;4961114;28;20541;-66
2022/06/27 04:15:18;;;;;;;4.60;4.20;;;;;;;18.69;63.45;95218.53;4964911;28;20226;-66
2022/06/27 04:17:43;;;;;;;9.90;4.32;;;;;;;18.69;62.70;95213.22;4962137;28;20221;-66
2022/06/27 04:20:09;;;;;;;4.78;4.15;;;;;;;18.63;62.61;95211.34;4963464;28;20248;-66
2022/06/27 04:22:35;;;;;;;5.22;4.32;;;;;;;18.75;62.10;95205.47;4960970;28;20221;-68
2022/06/27 04:25:01;;;;;;;8.52;4.68;;;;;;;19.09;60.92;95209.94;4965168;28;20278;-66
2022/06/27 04:27:27;;;;;;;5.05;4.63;;;;;;;18.98;61.37;95210.47;4960915;28;20228;-67
2022/06/27 04:29:53;;;;;;;4.57;4.20;;;;;;;18.84;62.31;95210.41;4965451;28;20670;-67
2022/06/27 04:32:20;;;;;;;5.35;4.10;;;;;;;18.83;62.56;95211.47;4961605;28;20216;-67
2022/06/27 04:34:46;;;;;;;5.00;4.60;;;;;;;18.84;62.78;95209.59;4963064;28;20231;-67
2022/06/27 04:37:11;;;;;;;5.50;4.50;;;;;;;18.92;62.26;95212.94;4972841;28;20731;-66
2022/06/27 04:39:38;;;;;;;5.35;4.80;;;;;;;18.94;62.24;95215.41;4972265;28;20224;-67
2022/06/27 04:42:04;;;;;;;6.88;4.60;;;;;;;19.03;62.02;95214.22;4969504;28;20314;-64
2022/06/27 04:44:30;;;;;;;5.50;4.70;;;;;;;19.02;62.09;95215.22;4956532;28;20224;-65
2022/06/27 04:46:56;;;;;;;5.60;4.97;;;;;;;19.12;62.47;95217.53;4979652;28;20216;-66
2022/06/27 04:49:22;;;;;;;6.03;5.47;;;;;;;19.05;62.99;95211.34;4971616;28;20574;-65
2022/06/27 04:51:51;;;;;;;7.05;5.57;;;;;;;19.13;63.46;95213.81;4966457;28;20723;-65
2022/06/27 04:54:18;;;;;;;6.97;5.60;;;;;;;19.20;63.62;95212.00;4975092;28;20224;-65
2022/06/27 04:56:45;;;;;;;6.15;5.65;;;;;;;19.35;63.87;95215.34;4970028;28;20238;-66
2022/06/27 04:59:13;;;;;;;8.15;6.20;;;;;;;19.27;63.98;95214.69;4972761;28;20281;-66
2022/06/27 05:01:40;;;;;;;8.35;6.57;;;;;;;19.35;64.08;95218.00;4964802;28;20280;-66
2022/06/27 05:04:05;;;;;;;7.25;6.13;;;;;;;19.47;63.95;95220.91;4963262;28;20258;-65
2022/06/27 05:06:31;;;;;;;8.43;6.20;;;;;;;19.46;63.99;95221.94;4965219;28;20316;-65
2022/06/27 05:08:58;;;;;;;9.00;5.72;;;;;;;19.49;63.92;95223.38;4954906;28;20230;-67
2022/06/27 05:11:23;;;;;;;8.30;6.15;;;;;;;19.55;63.88;95214.56;4976051;28;20246;-66
2022/06/27 05:13:49;;;;;;;7.88;6.30;;;;;;;19.55;64.35;95215.38;4965639;28;20212;-65
2022/06/27 05:16:16;;;;;;;8.65;7.40;;;;;;;19.49;64.51;95224.19;4966191;28;20258;-67
2022/06/27 05:18:42;;;;;;;9.70;7.00;;;;;;;19.49;64.53;95218.84;4964442;28;20224;-66
2022/06/27 05:21:08;;;;;;;11.50;9.60;;;;;;;19.51;64.68;95227.47;4966258;28;20725;-68
2022/06/27 05:23:37;;;;;;;9.90;8.23;;;;;;;19.36;65.31;95230.31;4952272;28;20220;-67
2022/06/27 05:26:04;;;;;;;8.80;7.82;;;;;;;19.63;64.86;95230.38;4962684;28;20260;-66
2022/06/27 05:28:30;;;;;;;8.88;7.68;;;;;;;19.69;64.54;95228.75;4955880;28;20215;-65
2022/06/27 05:30:55;;;;;;;9.80;8.98;;;;;;;19.75;63.88;95236.78;4971982;28;20586;-65
2022/06/27 05:33:22;;;;;;;9.27;8.23;;;;;;;19.71;64.25;95232.06;4974445;28;20222;-65
2022/06/27 05:35:48;;;;;;;9.93;8.95;;;;;;;19.75;64.19;95235.94;4964690;28;20761;-66
2022/06/27 05:38:14;;;;;;;10.73;8.40;;;;;;;19.81;63.97;95243.97;4962383;28;20267;-67
2022/06/27 05:40:40;;;;;;;10.52;8.85;;;;;;;19.86;65.11;95245.19;4963948;28;20236;-65
2022/06/27 05:43:06;;;;;;;9.40;8.35;;;;;;;19.85;65.80;95238.22;4970726;28;20201;-69
2022/06/27 05:45:31;;;;;;;12.50;9.20;;;;;;;20.02;64.74;95234.13;4986022;28;20215;-64
2022/06/27 05:48:03;;;;;;;9.30;8.32;;;;;;;19.90;64.82;95236.59;4977637;28;20696;-64
2022/06/27 05:50:30;;;;;;;10.20;9.18;;;;;;;20.02;65.24;95236.78;4954164;28;20544;-65
2022/06/27 05:52:59;;;;;;;11.25;9.30;;;;;;;20.12;65.16;95239.06;4969319;28;20286;-65
2022/06/27 05:55:25;;;;;;;10.43;9.50;;;;;;;20.16;65.07;95241.13;4962851;28;20256;-65
2022/06/27 05:57:52;;;;;;;10.68;9.70;;;;;;;20.19;64.69;95246.03;4965896;28;20232;-65
2022/06/27 06:00:18;;;;;;;11.05;10.05;;;;;;;20.18;64.24;95238.22;4960868;28;20254;-65
2022/06/27 06:02:44;;;;;;;9.88;8.88;;;;;;;20.10;64.37;95241.94;4967083;28;20223;-65
2022/06/27 06:05:11;;;;;;;9.48;8.73;;;;;;;20.13;64.90;95240.69;4964676;28;20227;-66
2022/06/27 06:07:37;;;;;;;10.00;9.05;;;;;;;20.30;64.17;95246.44;4973960;28;20208;-66
2022/06/27 06:10:04;;;;;;;9.50;8.50;;;;;;;20.36;64.28;95246.44;4961010;28;20284;-67
2022/06/27 06:12:30;;;;;;;12.07;9.13;;;;;;;20.30;64.34;95244.59;4959151;28;20235;-68
2022/06/27 06:14:59;;;;;;;9.48;8.15;;;;;;;20.38;64.12;95244.38;4965659;28;20795;-64
2022/06/27 06:17:24;;;;;;;10.48;8.40;;;;;;;20.41;63.62;95248.50;4964542;28;20228;-66
2022/06/27 06:19:50;;;;;;;12.88;9.43;;;;;;;20.70;62.59;95240.03;4965387;28;20224;-66
2022/06/27 06:22:15;;;;;;;12.05;8.65;;;;;;;20.35;64.08;95241.31;4970499;28;20809;-67
2022/06/27 06:24:40;;;;;;;11.90;8.73;;;;;;;20.52;63.15;95255.06;4974921;28;20233;-67
2022/06/27 06:27:06;;;;;;;11.50;8.98;;;;;;;20.41;63.97;95254.66;4970661;28;20311;-69
2022/06/27 06:29:32;;;;;;;9.93;8.68;;;;;;;20.60;63.90;95253.00;4967661;28;20270;-69
2022/06/27 06:31:58;;;;;;;10.43;8.70;;;;;;;20.54;65.65;95248.50;4966768;28;20355;-69
2022/06/27 06:34:24;;;;;;;10.25;9.20;;;;;;;20.61;64.58;95251.16;4961276;28;20700;-69
2022/06/27 06:36:49;;;;;;;13.80;9.23;;;;;;;20.76;63.84;95250.94;4961589;28;20236;-69
2022/06/27 06:39:15;;;;;;;11.10;9.35;;;;;;;20.79;62.78;95250.50;4972954;28;20225;-68
2022/06/27 06:41:41;;;;;;;11.30;9.43;;;;;;;20.75;62.96;95250.13;4961988;28;20245;-68
2022/06/27 06:44:07;;;;;;;9.65;8.73;;;;;;;20.77;63.03;95249.88;4962759;28;20235;-68
2022/06/27 06:46:34;;;;;;;10.20;9.20;;;;;;;20.80;62.65;95260.19;4959070;28;20211;-68
2022/06/27 06:49:04;;;;;;;11.68;9.50;;;;;;;20.83;62.51;95259.75;4955625;28;20251;-68
2022/06/27 06:51:31;;;;;;;11.57;10.35;;;;;;;20.79;62.40;95259.34;4961792;28;20224;-68
2022/06/27 06:53:58;;;;;;;10.20;9.30;;;;;;;20.98;62.31;95259.50;4962436;28;20219;-68
2022/06/27 06:56:24;;;;;;;11.90;9.15;;;;;;;20.93;62.41;95258.28;4964528;28;20229;-67
2022/06/27 06:58:49;;;;;;;10.00;8.52;;;;;;;21.08;62.77;95271.41;4970008;28;20702;-68
2022/06/27 07:01:15;;;;;;;10.70;8.10;;;;;;;21.13;60.08;95263.56;4968050;28;20708;-67
2022/06/27 07:03:41;;;;;;;11.27;10.25;;;;;;;21.18;60.77;95270.16;4966086;28;20226;-68
2022/06/27 07:06:06;;;;;;;11.75;9.50;;;;;;;21.22;60.90;95266.00;4963003;28;20245;-68
2022/06/27 07:08:33;;;;;;;9.90;8.90;;;;;;;21.31;60.44;95262.88;4958448;28;20228;-69
2022/06/27 07:10:59;;;;;;;11.13;8.88;;;;;;;21.35;60.70;95264.09;4958255;28;20208;-70
2022/06/27 07:13:25;;;;;;;11.27;8.63;;;;;;;21.59;59.30;95267.91;4961395;28;20228;-68
2022/06/27 07:15:51;;;;;;;10.00;8.15;;;;;;;21.66;59.11;95275.09;4976840;28;20220;-65
2022/06/27 07:18:17;;;;;;;9.02;6.47;;;;;;;21.64;58.03;95269.13;4968653;28;20227;-68
2022/06/27 07:20:43;;;;;;;9.75;6.88;;;;;;;21.73;57.70;95273.19;4963700;28;20232;-69
2022/06/27 07:23:11;;;;;;;9.70;6.97;;;;;;;21.73;57.91;95273.19;4963303;28;20231;-68
2022/06/27 07:25:37;;;;;;;8.25;7.28;;;;;;;21.58;56.91;95284.19;4969030;28;20298;-67
2022/06/27 07:28:04;;;;;;;8.90;7.05;;;;;;;21.76;56.03;95276.28;4962638;28;20225;-68
2022/06/27 07:30:29;;;;;;;6.88;6.18;;;;;;;21.65;56.38;95276.97;4971599;28;20223;-68
2022/06/27 07:32:55;;;;;;;7.05;6.28;;;;;;;21.80;55.41;95276.66;4969684;28;20233;-68
2022/06/27 07:35:20;;;;;;;7.75;5.97;;;;;;;21.86;55.58;95278.47;4969307;28;20223;-68
2022/06/27 07:37:51;;;;;;;8.77;6.60;;;;;;;21.96;55.63;95278.81;4960958;28;20537;-71
2022/06/27 07:40:22;;;;;;;7.50;6.70;;;;;;;22.05;54.60;95271.34;4966226;28;20722;-71
2022/06/27 07:42:49;;;;;;;8.23;6.28;;;;;;;22.05;54.33;95270.50;4963560;28;20224;-69
2022/06/27 07:45:15;;;;;;;7.32;6.63;;;;;;;22.01;54.51;95265.59;4968107;28;20224;-69
2022/06/27 07:47:46;;;;;;;7.35;6.50;;;;;;;22.03;55.46;95271.56;4964378;28;20215;-69
2022/06/27 07:50:36;;;;;;;6.53;5.93;;;;;;;22.20;55.10;95279.09;4973791;28;20294;-69
2022/06/27 07:53:13;;;;;;;7.85;6.70;;;;;;;22.28;54.51;95270.78;4962415;28;20239;-66
2022/06/27 07:55:48;;;;;;;7.20;6.60;;;;;;;22.17;54.40;95274.97;4971569;28;20648;-66
2022/06/27 07:58:15;;;;;;;7.78;6.28;;;;;;;22.24;54.10;95270.41;4958574;28;20648;-67
2022/06/27 08:00:43;;;;;;;7.97;5.38;;;;;;;22.60;51.15;95273.41;4961978;28;20299;-66
2022/06/27 08:05:53;;;;;;;5.97;5.45;;;;;;;22.64;52.79;95259.34;4963357;28;20279;-66
2022/06/27 08:08:23;;;;;;;7.15;5.10;;;;;;;22.62;52.69;95268.66;4989004;28;20687;-66
2022/06/27 08:10:51;;;;;;;5.57;5.07;;;;;;;22.66;51.99;95262.59;4963273;28;20695;-66
2022/06/27 08:13:17;;;;;;;5.43;4.93;;;;;;;22.76;52.45;95261.28;4962277;28;20255;-65
2022/06/27 08:15:42;;;;;;;5.28;4.85;;;;;;;22.73;51.76;95265.25;4972233;28;20223;-66
2022/06/27 08:18:09;;;;;;;7.82;5.93;;;;;;;22.96;51.30;95266.44;4967023;28;20236;-65
2022/06/27 08:20:38;;;;;;;6.93;5.75;;;;;;;22.84;51.29;95269.88;4958376;28;20239;-65
2022/06/27 08:23:04;;;;;;;5.47;4.90;;;;;;;22.90;50.51;95268.97;4958690;28;20220;-65
2022/06/27 08:25:30;;;;;;;5.60;4.70;;;;;;;22.80;50.86;95270.53;4968135;28;20206;-66
2022/06/27 08:27:56;;;;;;;6.40;4.80;;;;;;;22.78;50.82;95265.41;4956673;28;20264;-65
2022/06/27 08:30:25;;;;;;;5.03;4.53;;;;;;;22.87;49.94;95263.25;4967603;28;20236;-65
2022/06/27 08:32:55;;;;;;;5.50;5.00;;;;;;;22.91;49.90;95261.75;4972533;28;20224;-65
2022/06/27 08:35:24;;;;;;;5.40;4.90;;;;;;;23.03;50.03;95267.22;4971551;28;20227;-66
2022/06/27 08:37:54;;;;;;;5.22;4.72;;;;;;;22.97;50.10;95270.81;4963346;28;20235;-65
2022/06/27 08:40:20;;;;;;;6.18;5.68;;;;;;;23.00;49.42;95262.31;4963078;28;20236;-65
2022/06/27 08:42:47;;;;;;;6.55;4.50;;;;;;;23.06;48.87;95266.78;4974078;28;20242;-66
2022/06/27 08:45:17;;;;;;;4.95;4.40;;;;;;;23.06;49.52;95261.41;4954583;28;20317;-65
2022/06/27 08:47:43;;;;;;;5.43;4.07;;;;;;;23.17;49.03;95252.63;4962797;28;20252;-65
2022/06/27 08:50:10;;;;;;;5.50;5.00;;;;;;;23.37;48.38;95254.25;4964796;28;20225;-66
2022/06/27 08:52:40;;;;;;;4.35;3.95;;;;;;;23.23;47.33;95265.16;4965142;28;20216;-66
2022/06/27 08:55:08;;;;;;;6.07;4.63;;;;;;;23.41;47.62;95264.28;4971063;28;20649;-63
2022/06/27 08:57:36;;;;;;;4.50;4.10;;;;;;;23.46;46.68;95259.06;4968827;28;20328;-65
2022/06/27 09:00:06;;;;;;;6.78;3.85;;;;;;;23.58;45.76;95253.78;4970612;28;20255;-65
2022/06/27 09:02:41;;;;;;;4.68;4.28;;;;;;;23.60;46.63;95257.03;4956873;28;20229;-65
2022/06/27 09:05:15;;;;;;;4.97;4.50;;;;;;;23.71;46.77;95264.34;4967097;28;20716;-66
2022/06/27 09:07:55;;;;;;;5.70;5.10;;;;;;;23.79;46.18;95255.16;4969142;28;20216;-65
2022/06/27 09:10:24;;;;;;;6.40;4.60;;;;;;;23.98;46.54;95253.25;4968291;28;20204;-65
2022/06/27 09:12:58;;;;;;;5.40;4.97;;;;;;;24.35;47.32;95253.03;4956529;28;20223;-65
2022/06/27 09:15:39;;;;;;;5.38;4.30;;;;;;;24.52;46.67;95262.09;4970475;28;20220;-65
2022/06/27 09:18:09;;;;;;;5.07;4.60;;;;;;;24.57;46.86;95254.16;4969602;28;20231;-65
2022/06/27 09:21:01;;;;;;;5.30;4.80;;;;;;;24.61;45.51;95259.88;4953723;28;20224;-65
2022/06/27 09:23:50;;;;;;;5.18;4.68;;;;;;;24.67;45.04;95252.75;4967164;28;20440;-65
2022/06/27 09:26:18;;;;;;;5.00;4.40;;;;;;;24.59;44.25;95248.53;4963006;28;20259;-65
2022/06/27 09:28:50;;;;;;;4.45;4.05;;;;;;;24.77;43.79;95256.50;4963101;28;20721;-65
2022/06/27 09:31:28;;;;;;;6.35;4.05;;;;;;;24.73;44.22;95254.53;4957326;28;20289;-65
2022/06/27 09:34:09;;;;;;;5.28;4.28;;;;;;;24.76;45.29;95249.50;4966502;28;20291;-66
2022/06/27 09:36:48;;;;;;;7.85;4.20;;;;;;;24.93;43.28;95246.88;4954942;28;20239;-65
2022/06/27 09:39:23;;;;;;;4.60;4.18;;;;;;;25.09;43.12;95248.84;4961213;28;20227;-65
2022/06/27 09:41:54;;;;;;;4.47;3.90;;;;;;;25.24;43.94;95244.88;4963694;28;20232;-65
2022/06/27 09:44:22;;;;;;;4.53;4.10;;;;;;;25.37;43.80;95247.31;4968652;28;20335;-65
2022/06/27 09:47:01;;;;;;;5.63;3.90;;;;;;;25.24;43.45;95239.50;4972181;28;20215;-65
2022/06/27 09:49:31;;;;;;;4.65;4.20;;;;;;;25.07;44.32;95244.75;4965300;28;20264;-65
2022/06/27 09:51:57;;;;;;;4.90;4.18;;;;;;;25.28;44.27;95246.03;4973168;28;20224;-65
2022/06/27 09:54:23;;;;;;;4.10;3.75;;;;;;;25.45;42.58;95240.75;4969015;28;20230;-65
2022/06/27 09:56:50;;;;;;;5.57;5.07;;;;;;;25.61;43.43;95249.91;4964516;28;20240;-65
2022/06/27 09:59:16;;;;;;;4.65;4.25;;;;;;;25.38;43.76;95245.44;4960429;28;20228;-65
2022/06/27 10:01:43;;;;;;;4.50;4.10;;;;;;;25.10;43.17;95238.94;4959180;28;20212;-65
2022/06/27 10:04:10;;;;;;;4.63;4.32;;;;;;;25.18;43.79;95246.66;4962512;28;20307;-64
2022/06/27 10:06:38;;;;;;;4.50;4.10;;;;;;;24.93;45.34;95238.81;4969522;28;20232;-65
2022/06/27 10:09:08;;;;;;;4.50;4.10;;;;;;;25.02;44.38;95236.56;4957759;28;20228;-65
2022/06/27 10:11:35;;;;;;;5.72;3.97;;;;;;;25.18;44.78;95241.28;4981378;28;20262;-65
2022/06/27 10:14:22;;;;;;;4.80;4.30;;;;;;;25.49;43.18;95231.91;4966359;28;20291;-65
2022/06/27 10:16:58;;;;;;;4.43;4.03;;;;;;;25.87;42.69;95233.19;4967662;28;20593;-64
2022/06/27 10:19:29;;;;;;;4.68;3.95;;;;;;;26.03;41.53;95231.56;4961848;28;20761;-66
2022/06/27 10:21:56;;;;;;;5.80;3.95;;;;;;;26.06;41.44;95230.28;4966548;28;20689;-65
2022/06/27 10:24:24;;;;;;;3.92;3.55;;;;;;;26.17;40.32;95229.41;4942143;28;20248;-66
2022/06/27 10:26:54;;;;;;;4.97;4.00;;;;;;;26.07;40.71;95227.34;4967082;28;20253;-65
2022/06/27 10:29:46;;;;;;;5.68;4.45;;;;;;;26.29;41.93;95223.94;4964185;28;20419;-66
2022/06/27 10:32:44;;;;;;;4.43;4.03;;;;;;;26.57;40.08;95218.47;4963060;28;20290;-69
2022/06/27 10:35:11;;;;;;;4.30;3.95;;;;;;;26.78;40.40;95216.91;4967438;28;20227;-67
2022/06/27 10:37:39;;;;;;;4.03;3.58;;;;;;;26.85;38.38;95216.69;4971708;28;20260;-66
2022/06/27 10:40:19;;;;;;;3.90;3.40;;;;;;;26.76;38.18;95220.91;4971741;28;20345;-66
2022/06/27 10:42:45;;;;;;;4.70;3.53;;;;;;;26.97;39.91;95216.56;4956888;28;20238;-66
2022/06/27 10:45:30;;;;;;;4.00;3.47;;;;;;;27.11;38.61;95215.16;4969817;28;20228;-66
2022/06/27 10:48:02;;;;;;;4.35;3.53;;;;;;;27.10;38.42;95218.91;4961321;28;20251;-66
2022/06/27 10:50:40;;;;;;;3.75;3.45;;;;;;;27.50;37.75;95212.41;4950398;28;20224;-66
2022/06/27 10:53:25;;;;;;;4.13;3.72;;;;;;;27.55;39.42;95212.47;4951970;28;20283;-65
2022/06/27 10:55:52;;;;;;;4.45;4.05;;;;;;;27.71;38.38;95208.84;4951613;28;20299;-63
2022/06/27 10:58:24;;;;;;;4.43;3.92;;;;;;;27.52;37.80;95214.84;4963381;28;20282;-65
2022/06/27 11:00:50;;;;;;;4.82;3.72;;;;;;;27.53;37.26;95211.06;4964036;28;20223;-64
2022/06/27 11:03:20;;;;;;;4.72;3.78;;;;;;;27.57;37.41;95210.31;4959159;28;20227;-65
2022/06/27 11:06:05;;;;;;;4.43;3.50;;;;;;;27.40;37.32;95202.31;4961198;28;20311;-65
2022/06/27 11:08:35;;;;;;;5.65;3.92;;;;;;;27.08;38.36;95204.88;4974818;28;20224;-65
2022/06/27 11:11:01;;;;;;;4.97;3.53;;;;;;;26.58;38.34;95205.81;4978595;28;20228;-64
2022/06/27 11:13:48;;;;;;;4.13;3.80;;;;;;;26.53;40.17;95213.81;4961763;28;20270;-65
2022/06/27 11:16:16;;;;;;;3.42;3.20;;;;;;;26.80;38.49;95203.94;4966250;28;20346;-65
2022/06/27 11:18:44;;;;;;;3.53;3.22;;;;;;;27.22;37.83;95198.06;4966596;28;20308;-65
2022/06/27 11:21:11;;;;;;;4.00;3.70;;;;;;;27.67;36.72;95198.81;4965586;28;20239;-64
2022/06/27 11:24:11;;;;;;;4.90;3.60;;;;;;;28.02;36.68;95190.25;4963318;28;20244;-65
2022/06/27 11:26:44;;;;;;;5.38;3.55;;;;;;;28.25;36.45;95193.69;4943651;28;20235;-65
2022/06/27 11:32:04;;;;;;;3.67;3.38;;;;;;;28.21;34.87;95193.41;4947404;28;20235;-65
2022/06/27 11:34:33;;;;;;;3.63;3.25;;;;;;;27.93;35.30;95187.22;4923643;28;20614;-65
2022/06/27 11:37:01;;;;;;;3.55;3.28;;;;;;;27.76;35.33;95193.78;4945980;28;20283;-65
2022/06/27 11:39:32;;;;;;;4.18;3.70;;;;;;;28.08;35.38;95197.34;4949990;28;20316;-66
2022/06/27 11:42:00;;;;;;;3.95;3.47;;;;;;;28.26;34.36;95190.72;4933405;28;20962;-66
2022/06/27 11:44:26;;;;;;;5.03;3.00;;;;;;;28.30;34.38;95193.72;4942885;28;20228;-66
2022/06/27 11:46:53;;;;;;;3.78;3.30;;;;;;;28.64;34.33;95191.56;4941017;28;20208;-66